createdAt,value
2022-11-29T00:02:22.612Z,100687.34
2022-11-29T00:04:50.544Z,100709.28
2022-11-29T00:07:18.344Z,100704.06
2022-11-29T00:09:46.203Z,100709.34
2022-11-29T00:12:13.909Z,100712.00
2022-11-29T00:14:42.634Z,100705.84
2022-11-29T00:17:10.602Z,100719.94
2022-11-29T00:19:39.968Z,100721.72
2022-11-29T00:22:08.050Z,100717.34
2022-11-29T00:24:36.811Z,100738.41
2022-11-29T00:27:04.986Z,100713.00
2022-11-29T00:29:32.948Z,100728.78
2022-11-29T00:32:00.992Z,100726.16
2022-11-29T00:34:29.708Z,100725.28
2022-11-29T00:36:59.135Z,100733.13
2022-11-29T00:39:27.149Z,100720.88
2022-11-29T00:41:55.040Z,100747.09
2022-11-29T00:44:23.014Z,100735.66
2022-11-29T00:46:51.373Z,100730.44
2022-11-29T00:49:19.221Z,100733.09
2022-11-29T00:51:47.435Z,100724.28
2022-11-29T00:54:18.241Z,100733.91
2022-11-29T00:56:45.960Z,100716.41
2022-11-29T00:59:13.764Z,100728.72
2022-11-29T01:01:41.520Z,100740.09
2022-11-29T01:04:09.412Z,100742.72
2022-11-29T01:06:37.329Z,100749.72
2022-11-29T01:09:05.224Z,100761.09
2022-11-29T01:11:34.674Z,100756.75
2022-11-29T01:14:03.685Z,100758.44
2022-11-29T01:16:32.537Z,100767.22
2022-11-29T01:19:00.845Z,100756.59
2022-11-29T01:21:29.341Z,100742.56
2022-11-29T01:23:57.547Z,100731.16
2022-11-29T01:26:27.419Z,100747.81
2022-11-29T01:28:58.548Z,100753.94
2022-11-29T01:31:28.313Z,100739.88
2022-11-29T01:33:56.932Z,100738.13
2022-11-29T01:36:25.648Z,100743.41
2022-11-29T01:38:54.283Z,100738.97
2022-11-29T01:41:26.597Z,100726.72
2022-11-29T01:44:01.620Z,100737.28
2022-11-29T01:46:30.912Z,100738.97
2022-11-29T01:49:03.218Z,100736.31
2022-11-29T01:51:32.541Z,100736.34
2022-11-29T01:54:00.613Z,100749.50
2022-11-29T01:56:31.143Z,100734.63
2022-11-29T01:59:02.783Z,100753.94
2022-11-29T02:01:30.599Z,100749.50
2022-11-29T02:03:59.164Z,100748.59
2022-11-29T02:06:28.262Z,100757.34
2022-11-29T02:08:56.641Z,100749.44
2022-11-29T02:11:55.393Z,100752.97
2022-11-29T02:14:41.010Z,100755.53
2022-11-29T02:17:15.372Z,100743.28
2022-11-29T02:20:17.468Z,100742.38
2022-11-29T02:22:52.766Z,100742.38
2022-11-29T02:25:48.467Z,100728.41
2022-11-29T02:28:46.815Z,100748.50
2022-11-29T02:31:58.437Z,100735.31
2022-11-29T02:34:54.524Z,100726.59
2022-11-29T02:37:48.936Z,100741.53
2022-11-29T02:40:34.759Z,100737.16
2022-11-29T02:43:28.421Z,100747.63
2022-11-29T02:46:11.623Z,100753.75
2022-11-29T02:48:54.651Z,100744.06
2022-11-29T02:51:32.477Z,100747.56
2022-11-29T02:54:07.498Z,100759.81
2022-11-29T02:56:40.955Z,100731.78
2022-11-29T02:59:16.886Z,100739.69
2022-11-29T03:01:55.669Z,100722.09
2022-11-29T03:04:31.814Z,100750.19
2022-11-29T03:07:08.599Z,100760.72
2022-11-29T03:09:42.727Z,100747.47
2022-11-29T03:12:19.883Z,100738.72
2022-11-29T03:14:58.303Z,100732.56
2022-11-29T03:17:36.698Z,100744.88
2022-11-29T03:20:23.975Z,100754.50
2022-11-29T03:23:09.450Z,100741.34
2022-11-29T03:25:41.622Z,100756.31
2022-11-29T03:28:16.509Z,100751.06
2022-11-29T03:30:51.684Z,100763.38
2022-11-29T03:33:29.411Z,100752.91
2022-11-29T03:36:05.534Z,100773.03
2022-11-29T03:38:41.544Z,100763.41
2022-11-29T03:41:20.935Z,100772.19
2022-11-29T03:43:54.298Z,100776.56
2022-11-29T03:46:30.417Z,100760.75
2022-11-29T03:49:04.003Z,100750.28
2022-11-29T03:51:43.971Z,100774.00
2022-11-29T03:54:18.813Z,100764.41
2022-11-29T03:56:47.096Z,100771.44
2022-11-29T03:59:31.752Z,100776.72
2022-11-29T04:02:29.077Z,100763.59
2022-11-29T04:05:22.744Z,100796.06
2022-11-29T04:08:11.149Z,100752.25
2022-11-29T04:11:12.253Z,100772.50
2022-11-29T04:14:07.152Z,100796.19
2022-11-29T04:17:20.876Z,100797.09
2022-11-29T04:20:16.983Z,100794.47
2022-11-29T04:23:12.961Z,100788.31
2022-11-29T04:26:03.621Z,100807.66
2022-11-29T04:28:57.817Z,100802.38
2022-11-29T04:31:36.688Z,100818.13
2022-11-29T04:34:32.399Z,100823.41
2022-11-29T04:37:15.789Z,100827.75
2022-11-29T04:39:57.684Z,100821.63
2022-11-29T04:42:51.777Z,100820.75
2022-11-29T04:45:50.214Z,100816.34
2022-11-29T04:48:48.288Z,100809.34
2022-11-29T04:51:27.513Z,100814.59
2022-11-29T04:54:02.868Z,100794.44
2022-11-29T04:56:37.988Z,100796.25
2022-11-29T04:59:14.565Z,100802.41
2022-11-29T05:01:56.462Z,100805.94
2022-11-29T05:04:30.874Z,100806.81
2022-11-29T05:07:06.769Z,100827.00
2022-11-29T05:09:49.536Z,100810.38
2022-11-29T05:12:23.436Z,100810.41
2022-11-29T05:15:15.642Z,100818.34
2022-11-29T05:17:57.206Z,100821.88
2022-11-29T05:20:35.865Z,100827.19
2022-11-29T05:23:26.862Z,100829.81
2022-11-29T05:26:01.601Z,100822.03
2022-11-29T05:28:38.165Z,100818.50
2022-11-29T05:31:21.018Z,100835.25
2022-11-29T05:34:05.635Z,100838.75
2022-11-29T05:36:44.598Z,100858.97
2022-11-29T05:39:38.921Z,100844.09
2022-11-29T05:42:44.792Z,100861.66
2022-11-29T05:45:19.241Z,100866.09
2022-11-29T05:47:53.746Z,100857.34
2022-11-29T05:50:29.654Z,100866.09
2022-11-29T05:53:03.187Z,100882.81
2022-11-29T05:55:41.460Z,100878.38
2022-11-29T05:58:24.450Z,100869.63
2022-11-29T06:01:01.074Z,100874.97
2022-11-29T06:03:37.199Z,100896.06
2022-11-29T06:06:14.170Z,100879.47
2022-11-29T06:08:48.805Z,100896.16
2022-11-29T06:11:22.985Z,100902.34
2022-11-29T06:14:03.107Z,100910.28
2022-11-29T06:17:02.856Z,100907.66
2022-11-29T06:19:53.657Z,100916.47
2022-11-29T06:22:40.942Z,100927.91
2022-11-29T06:25:24.616Z,100921.75
2022-11-29T06:28:08.218Z,100931.50
2022-11-29T06:30:53.261Z,100921.88
2022-11-29T06:33:26.000Z,100917.53
2022-11-29T06:36:13.043Z,100943.88
2022-11-29T06:38:43.012Z,100951.78
2022-11-29T06:41:17.706Z,100954.44
2022-11-29T06:43:46.176Z,100969.41
2022-11-29T06:46:22.332Z,100971.16
2022-11-29T06:48:56.617Z,100972.91
2022-11-29T06:51:34.642Z,100972.06
2022-11-29T06:54:19.289Z,100979.16
2022-11-29T06:56:56.216Z,100991.41
2022-11-29T06:59:45.138Z,100999.31
2022-11-29T07:02:29.061Z,101007.25
2022-11-29T07:05:12.509Z,101016.00
2022-11-29T07:07:41.864Z,101024.78
2022-11-29T07:10:18.249Z,101021.28
2022-11-29T07:12:47.327Z,101039.69
2022-11-29T07:15:17.318Z,101055.44
2022-11-29T07:17:58.720Z,101056.28
2022-11-29T07:20:33.414Z,101067.66
2022-11-29T07:23:12.063Z,101053.59
2022-11-29T07:25:54.226Z,101054.41
2022-11-29T07:28:37.307Z,101054.34
2022-11-29T07:31:12.268Z,101034.16
2022-11-29T07:33:49.987Z,101034.09
2022-11-29T07:36:27.031Z,101023.56
2022-11-29T07:39:04.844Z,101027.91
2022-11-29T07:41:44.372Z,101034.88
2022-11-29T07:44:22.645Z,101037.47
2022-11-29T07:46:50.397Z,101029.53
2022-11-29T07:49:18.195Z,101054.03
2022-11-29T07:51:46.196Z,101046.09
2022-11-29T07:54:20.065Z,101043.41
2022-11-29T07:56:49.189Z,101032.78
2022-11-29T07:59:16.903Z,101023.13
2022-11-29T08:01:44.741Z,101015.22
2022-11-29T08:04:13.790Z,101036.22
2022-11-29T08:06:41.711Z,101034.34
2022-11-29T08:09:09.441Z,101029.91
2022-11-29T08:11:37.487Z,101050.91
2022-11-29T08:14:06.890Z,101018.34
2022-11-29T08:16:34.832Z,101041.97
2022-11-29T08:19:02.757Z,101041.03
2022-11-29T08:21:30.438Z,101012.00
2022-11-29T08:23:58.185Z,101025.03
2022-11-29T08:26:31.205Z,101010.88
2022-11-29T08:28:59.382Z,101024.78
2022-11-29T08:31:28.673Z,100995.72
2022-11-29T08:33:56.413Z,100986.84
2022-11-29T08:36:24.152Z,100997.25
2022-11-29T08:38:57.800Z,100980.44
2022-11-29T08:41:30.896Z,100958.44
2022-11-29T08:43:58.829Z,100965.34
2022-11-29T08:46:47.911Z,100970.47
2022-11-29T08:49:15.787Z,100945.84
2022-11-29T08:51:43.768Z,100951.97
2022-11-29T08:54:10.772Z,100979.97
2022-11-29T08:59:27.181Z,100951.59
2022-11-29T09:01:56.422Z,100933.06
2022-11-29T09:04:24.154Z,100969.78
2022-11-29T09:06:52.056Z,100901.22
2022-11-29T09:09:19.889Z,100949.47
2022-11-29T09:11:49.615Z,100926.59
2022-11-29T09:14:18.119Z,100922.94
2022-11-29T09:16:46.102Z,100901.03
2022-11-29T09:19:16.817Z,100892.19
2022-11-29T09:21:44.498Z,100914.13
2022-11-29T09:24:12.272Z,100945.63
2022-11-29T09:26:42.058Z,100933.19
2022-11-29T09:29:10.021Z,100929.56
2022-11-29T09:31:37.867Z,100890.75
2022-11-29T09:34:05.711Z,100962.81
2022-11-29T09:36:34.914Z,100880.00
2022-11-29T09:39:04.858Z,100900.28
2022-11-29T09:41:56.066Z,100882.56
2022-11-29T09:44:36.141Z,100878.97
2022-11-29T09:47:14.817Z,100874.50
2022-11-29T09:50:00.840Z,100850.69
2022-11-29T09:52:40.884Z,100832.19
2022-11-29T09:55:27.534Z,100875.34
2022-11-29T09:57:57.763Z,100844.47
2022-11-29T10:00:26.054Z,100855.00
2022-11-29T10:03:05.198Z,100870.78
2022-11-29T10:05:39.113Z,100879.47
2022-11-29T10:08:17.113Z,100867.94
2022-11-29T10:10:48.059Z,100832.78
2022-11-29T10:13:20.432Z,100875.78
2022-11-29T10:15:54.068Z,100848.44
2022-11-29T10:18:27.189Z,100827.38
2022-11-29T10:20:58.550Z,100865.97
2022-11-29T10:23:33.064Z,100873.78
2022-11-29T10:26:00.917Z,100849.16
2022-11-29T10:28:32.006Z,100850.72
2022-11-29T10:31:04.592Z,100816.53
2022-11-29T10:33:37.035Z,100853.56
2022-11-29T10:36:13.163Z,100850.91
2022-11-29T10:38:44.099Z,100820.16
2022-11-29T10:41:17.898Z,100829.78
2022-11-29T10:43:45.948Z,100853.47
2022-11-29T10:46:17.335Z,100871.06
2022-11-29T10:48:45.663Z,100865.69
2022-11-29T10:51:18.453Z,100860.41
2022-11-29T10:53:47.746Z,100870.88
2022-11-29T10:56:24.001Z,100863.75
2022-11-29T10:58:57.612Z,100849.69
2022-11-29T11:01:29.014Z,100868.13
2022-11-29T11:03:58.323Z,100811.84
2022-11-29T11:06:30.920Z,100782.06
2022-11-29T11:09:20.983Z,100809.31
2022-11-29T11:11:53.935Z,100790.06
2022-11-29T11:14:26.629Z,100795.44
2022-11-29T11:16:54.912Z,100829.72
2022-11-29T11:19:31.033Z,100824.50
2022-11-29T11:22:00.302Z,100835.16
2022-11-29T11:24:31.653Z,100809.78
2022-11-29T11:27:00.135Z,100868.53
2022-11-29T11:29:39.026Z,100842.13
2022-11-29T11:32:16.466Z,100807.91
2022-11-29T11:34:53.030Z,100819.44
2022-11-29T11:37:24.073Z,100823.00
2022-11-29T11:39:56.779Z,100863.38
2022-11-29T11:42:38.171Z,100852.78
2022-11-29T11:45:23.999Z,100843.13
2022-11-29T11:47:54.725Z,100833.41
2022-11-29T11:50:31.548Z,100828.13
2022-11-29T11:53:00.892Z,100850.06
2022-11-29T11:55:37.429Z,100847.44
2022-11-29T11:58:16.055Z,100896.56
2022-11-29T12:01:06.226Z,100910.41
2022-11-29T12:03:44.946Z,100843.56
2022-11-29T12:06:36.171Z,100864.56
2022-11-29T12:09:11.013Z,100842.72
2022-11-29T12:11:45.600Z,100838.31
2022-11-29T12:14:23.098Z,100795.22
2022-11-29T12:16:55.687Z,100787.31
2022-11-29T12:19:30.188Z,100833.94
2022-11-29T12:22:04.398Z,100810.28
2022-11-29T12:24:36.897Z,100810.31
2022-11-29T12:27:11.036Z,100813.88
2022-11-29T12:29:38.976Z,100849.88
2022-11-29T12:32:22.364Z,100775.25
2022-11-29T12:35:04.728Z,100807.84
2022-11-29T12:37:40.508Z,100818.44
2022-11-29T12:40:18.795Z,100794.72
2022-11-29T12:42:57.626Z,100796.56
2022-11-29T12:45:35.407Z,100797.53
2022-11-29T12:48:14.715Z,100809.94
2022-11-29T12:50:52.450Z,100815.31
2022-11-29T12:53:35.139Z,100845.25
2022-11-29T12:56:13.638Z,100844.47
2022-11-29T12:58:54.993Z,100893.56
2022-11-29T13:01:32.464Z,100846.13
2022-11-29T13:04:10.360Z,100855.88
2022-11-29T13:06:45.569Z,100869.06
2022-11-29T13:09:36.059Z,100855.00
2022-11-29T13:12:09.858Z,100853.38
2022-11-29T13:14:46.546Z,100824.47
2022-11-29T13:17:27.125Z,100843.91
2022-11-29T13:20:01.854Z,100825.56
2022-11-29T13:22:38.054Z,100863.41
2022-11-29T13:25:17.021Z,100859.00
2022-11-29T13:27:51.365Z,100885.53
2022-11-29T13:30:23.661Z,100882.94
2022-11-29T13:33:01.646Z,100865.38
2022-11-29T13:35:37.724Z,100878.59
2022-11-29T13:38:26.506Z,100864.63
2022-11-29T13:41:01.171Z,100857.66
2022-11-29T13:43:36.519Z,100878.81
2022-11-29T13:46:17.458Z,100902.59
2022-11-29T13:48:50.551Z,100914.06
2022-11-29T13:51:32.861Z,100907.97
2022-11-29T13:54:03.247Z,100912.38
2022-11-29T13:56:37.228Z,100924.75
2022-11-29T13:59:09.272Z,100915.94
2022-11-29T14:01:53.861Z,100948.44
2022-11-29T14:04:34.403Z,100925.66
2022-11-29T14:07:12.320Z,100951.06
2022-11-29T14:09:47.476Z,100919.47
2022-11-29T14:12:31.162Z,100933.63
2022-11-29T14:15:02.563Z,100944.19
2022-11-29T14:17:47.416Z,100960.06
2022-11-29T14:20:51.800Z,100954.84
2022-11-29T14:23:35.578Z,100970.63
2022-11-29T14:26:29.195Z,100962.78
2022-11-29T14:28:58.010Z,100969.81
2022-11-29T14:31:51.248Z,100981.22
2022-11-29T14:34:42.847Z,100989.97
2022-11-29T14:37:33.917Z,100953.94
2022-11-29T14:40:13.350Z,100975.91
2022-11-29T14:42:47.285Z,100994.34
2022-11-29T14:45:25.666Z,101011.06
2022-11-29T14:47:53.571Z,101010.19
2022-11-29T14:50:33.485Z,100993.41
2022-11-29T14:53:02.228Z,100999.59
2022-11-29T14:55:35.328Z,100993.41
2022-11-29T14:58:18.341Z,100999.66
2022-11-29T15:01:08.175Z,100975.94
2022-11-29T15:03:46.161Z,100989.16
2022-11-29T15:06:23.452Z,101000.63
2022-11-29T15:08:58.613Z,101012.94
2022-11-29T15:11:44.338Z,101011.25
2022-11-29T15:14:21.534Z,101041.09
2022-11-29T15:17:02.372Z,101026.16
2022-11-29T15:19:49.718Z,101027.09
2022-11-29T15:22:21.320Z,101024.47
2022-11-29T15:24:57.855Z,101031.53
2022-11-29T15:27:25.964Z,101042.97
2022-11-29T15:29:54.082Z,101058.88
2022-11-29T15:32:28.085Z,101055.34
2022-11-29T15:34:57.387Z,101069.44
2022-11-29T15:37:42.687Z,101060.66
2022-11-29T15:40:14.858Z,101068.66
2022-11-29T15:42:45.127Z,101103.84
2022-11-29T15:45:31.690Z,101131.19
2022-11-29T15:48:19.375Z,101122.41
2022-11-29T15:51:03.413Z,101114.50
2022-11-29T15:53:38.169Z,101124.22
2022-11-29T15:56:12.551Z,101119.88
2022-11-29T15:58:41.515Z,101112.94
2022-11-29T16:01:10.203Z,101118.25
2022-11-29T16:03:42.133Z,101131.47
2022-11-29T16:06:23.207Z,101175.50
2022-11-29T16:08:53.733Z,101167.63
2022-11-29T16:11:27.683Z,101179.06
2022-11-29T16:14:22.536Z,101190.56
2022-11-29T16:16:52.574Z,101186.22
2022-11-29T16:19:31.149Z,101203.88
2022-11-29T16:22:09.446Z,101210.94
2022-11-29T16:24:50.153Z,101231.22
2022-11-29T16:27:21.476Z,101233.94
2022-11-29T16:29:51.513Z,101248.06
2022-11-29T16:32:27.399Z,101252.47
2022-11-29T16:34:56.792Z,101260.41
2022-11-29T16:37:26.532Z,101263.97
2022-11-29T16:40:00.407Z,101274.63
2022-11-29T16:42:30.230Z,101298.31
2022-11-29T16:45:24.319Z,101310.69
2022-11-29T16:47:58.165Z,101312.44
2022-11-29T16:50:27.197Z,101329.19
2022-11-29T16:52:57.029Z,101332.75
2022-11-29T16:55:26.487Z,101338.94
2022-11-29T16:57:54.390Z,101354.75
2022-11-29T17:00:31.554Z,101352.16
2022-11-29T17:02:59.832Z,101370.66
2022-11-29T17:05:28.235Z,101382.97
2022-11-29T17:07:57.246Z,101386.47
2022-11-29T17:10:26.801Z,101382.09
2022-11-29T17:12:54.590Z,101392.69
2022-11-29T17:15:22.765Z,101399.75
2022-11-29T17:17:50.647Z,101397.97
2022-11-29T17:20:18.584Z,101391.00
2022-11-29T17:22:46.284Z,101402.44
2022-11-29T17:25:14.237Z,101412.16
2022-11-29T17:27:45.669Z,101422.69
2022-11-29T17:30:14.683Z,101404.28
2022-11-29T17:32:43.231Z,101409.56
2022-11-29T17:35:13.522Z,101412.25
2022-11-29T17:37:41.431Z,101443.00
2022-11-29T17:40:10.506Z,101449.19
2022-11-29T17:42:38.473Z,101461.50
2022-11-29T17:45:08.881Z,101463.28
2022-11-29T17:47:37.170Z,101472.94
2022-11-29T17:50:05.782Z,101483.47
2022-11-29T17:52:33.509Z,101489.59
2022-11-29T17:55:01.503Z,101478.22
2022-11-29T17:57:29.427Z,101470.28
2022-11-29T17:59:58.056Z,101465.00
2022-11-29T18:02:27.595Z,101472.06
2022-11-29T18:04:55.674Z,101479.13
2022-11-29T18:07:23.752Z,101487.94
2022-11-29T18:09:51.779Z,101484.47
2022-11-29T18:12:20.199Z,101498.50
2022-11-29T18:14:50.348Z,101502.06
2022-11-29T18:17:20.125Z,101508.19
2022-11-29T18:19:49.644Z,101492.41
2022-11-29T18:22:17.532Z,101513.50
2022-11-29T18:24:45.521Z,101524.06
2022-11-29T18:27:13.418Z,101528.44
2022-11-29T18:29:41.394Z,101530.22
2022-11-29T18:32:09.388Z,101519.69
2022-11-29T18:34:37.572Z,101534.63
2022-11-29T18:37:12.325Z,101534.63
2022-11-29T18:39:44.952Z,101536.41
2022-11-29T18:42:13.445Z,101542.53
2022-11-29T18:44:41.491Z,101549.59
2022-11-29T18:47:09.586Z,101530.25
2022-11-29T18:49:40.496Z,101533.81
2022-11-29T18:52:10.288Z,101565.47
2022-11-29T18:54:38.337Z,101574.28
2022-11-29T18:57:06.614Z,101583.94
2022-11-29T18:59:34.674Z,101576.00
2022-11-29T19:02:02.584Z,101582.16
2022-11-29T19:04:30.608Z,101593.59
2022-11-29T19:06:58.512Z,101577.78
2022-11-29T19:09:27.897Z,101583.06
2022-11-29T19:11:56.250Z,101583.06
2022-11-29T19:14:24.146Z,101589.22
2022-11-29T19:16:51.989Z,101588.34
2022-11-29T19:19:20.138Z,101611.22
2022-11-29T19:21:48.753Z,101584.84
2022-11-29T19:24:18.452Z,101585.75
2022-11-29T19:26:48.957Z,101597.22
2022-11-29T19:29:17.339Z,101609.53
2022-11-29T19:31:46.387Z,101624.47
2022-11-29T19:34:14.969Z,101626.25
2022-11-29T19:36:44.483Z,101634.16
2022-11-29T19:39:13.993Z,101612.19
2022-11-29T19:41:43.628Z,101618.34
2022-11-29T19:44:13.565Z,101610.44
2022-11-29T19:46:43.399Z,101611.31
2022-11-29T19:49:11.861Z,101614.84
2022-11-29T19:51:39.796Z,101623.66
2022-11-29T19:54:10.611Z,101632.44
2022-11-29T19:56:39.444Z,101639.47
2022-11-29T19:59:08.372Z,101656.22
2022-11-29T20:01:41.332Z,101653.56
2022-11-29T20:04:11.310Z,101645.63
2022-11-29T20:06:40.025Z,101664.09
2022-11-29T20:09:08.339Z,101662.34
2022-11-29T20:11:36.824Z,101670.25
2022-11-29T20:14:06.407Z,101667.59
2022-11-29T20:16:34.930Z,101650.88
2022-11-29T20:19:04.411Z,101643.81
2022-11-29T20:21:34.017Z,101635.00
2022-11-29T20:24:04.187Z,101627.97
2022-11-29T20:26:35.658Z,101621.81
2022-11-29T20:29:04.608Z,101622.66
2022-11-29T20:31:35.011Z,101631.47
2022-11-29T20:34:05.405Z,101625.28
2022-11-29T20:36:45.656Z,101618.22
2022-11-29T20:39:24.878Z,101615.59
2022-11-29T20:42:05.913Z,101615.56
2022-11-29T20:44:38.732Z,101576.84
2022-11-29T20:47:17.555Z,101587.41
2022-11-29T20:49:47.744Z,101563.66
2022-11-29T20:52:28.531Z,101583.84
2022-11-29T20:54:56.594Z,101575.06
2022-11-29T20:57:24.474Z,101571.53
2022-11-29T20:59:52.499Z,101552.19
2022-11-29T21:02:21.576Z,101549.53
2022-11-29T21:04:50.931Z,101545.13
2022-11-29T21:07:19.001Z,101556.56
2022-11-29T21:09:47.358Z,101550.41
2022-11-29T21:12:16.097Z,101540.72
2022-11-29T21:14:45.149Z,101545.97
2022-11-29T21:17:14.142Z,101546.84
2022-11-29T21:19:42.651Z,101529.25
2022-11-29T21:22:26.487Z,101539.81
2022-11-29T21:25:04.474Z,101547.72
2022-11-29T21:27:35.428Z,101545.94
2022-11-29T21:30:06.063Z,101551.22
2022-11-29T21:32:35.114Z,101552.09
2022-11-29T21:35:03.041Z,101527.47
2022-11-29T21:37:32.638Z,101539.78
2022-11-29T21:40:01.673Z,101536.28
2022-11-29T21:42:29.689Z,101546.81
2022-11-29T21:44:57.632Z,101536.22
2022-11-29T21:47:25.793Z,101541.50
2022-11-29T21:49:54.755Z,101531.84
2022-11-29T21:52:23.397Z,101533.59
2022-11-29T21:54:53.018Z,101530.94
2022-11-29T21:57:20.893Z,101529.16
2022-11-29T21:59:48.875Z,101523.00
2022-11-29T22:02:17.069Z,101522.13
2022-11-29T22:04:45.717Z,101512.44
2022-11-29T22:07:13.827Z,101527.38
2022-11-29T22:09:41.915Z,101520.31
2022-11-29T22:12:32.470Z,101521.22
2022-11-29T22:14:59.880Z,101519.44
2022-11-29T22:17:27.869Z,101515.88
2022-11-29T22:19:55.829Z,101511.47
2022-11-29T22:22:27.969Z,101501.81
2022-11-29T22:24:56.382Z,101493.03
2022-11-29T22:27:25.870Z,101493.88
2022-11-29T22:29:53.952Z,101494.78
2022-11-29T22:32:21.990Z,101485.13
2022-11-29T22:34:49.929Z,101459.66
2022-11-29T22:37:17.854Z,101469.34
2022-11-29T22:39:45.690Z,101490.47
2022-11-29T22:42:13.667Z,101487.81
2022-11-29T22:44:43.028Z,101488.69
2022-11-29T22:47:10.918Z,101478.13
2022-11-29T22:49:38.890Z,101480.78
2022-11-29T22:52:06.833Z,101484.28
2022-11-29T22:54:34.811Z,101491.31
2022-11-29T22:57:02.754Z,101501.84
2022-11-29T22:59:30.719Z,101478.13
2022-11-29T23:01:59.972Z,101475.47
2022-11-29T23:04:28.018Z,101490.47
2022-11-29T23:06:56.088Z,101502.78
2022-11-29T23:09:24.087Z,101513.34
2022-11-29T23:11:54.868Z,101470.25
2022-11-29T23:14:24.128Z,101484.31
2022-11-29T23:16:52.201Z,101496.63
2022-11-29T23:19:21.812Z,101501.00
2022-11-29T23:21:49.787Z,101500.13
2022-11-29T23:24:17.764Z,101471.09
2022-11-29T23:26:47.658Z,101467.59
2022-11-29T23:29:17.742Z,101466.69
2022-11-29T23:31:46.665Z,101470.25
2022-11-29T23:34:14.928Z,101459.69
2022-11-29T23:36:48.370Z,101465.88
2022-11-29T23:39:20.700Z,101471.16
2022-11-29T23:41:48.557Z,101459.72
2022-11-29T23:44:16.356Z,101456.19
2022-11-29T23:46:44.298Z,101479.94
2022-11-29T23:49:12.549Z,101483.50
2022-11-29T23:51:40.570Z,101492.28
2022-11-29T23:54:10.131Z,101468.56
2022-11-29T23:56:38.062Z,101488.78
2022-11-29T23:59:06.312Z,101498.44
